Terminal Aerodrome Forecast
Issued by NWS Jackson, MS

Home | Current Version | Previous Version | Text Only | Print | Product List | Glossary On
Versions: 1 2 3 4 5 6 7 8 9 10 11 12 13 14 15 16
495
FTUS44 KJAN 181749
TAFHBG
TAF
KHBG 181749Z 1818/1918 22016G24KT P6SM BKN030 OVC045
     FM190000 24016G26KT P6SM VCSH BKN020 OVC030
     FM190300 32013G25KT P6SM OVC025
     FM190600 34011G19KT P6SM BKN035
     FM191000 35010KT P6SM SKC=

USA.gov is the U.S. government's official web portal to all federal, state and local government web resources and services.